<?xml version='1.0' encoding='UTF-8'?>
<gpx xmlns="http://www.topografix.com/GPX/1/1" creator="www.balnam.be" version="1.1" xmlns:xsi="http://www.w3.org/2001/XMLSchema-instance" xsi:schemaLocation="http://www.topografix.com/GPX/1/1 http://www.topografix.com/GPX/1/1/gpx.xsd">
<trk>
<name>heqss50</name>
<cmt>v</cmt>
<desc>Solre-sur-Sambre Sentier n°50 Rue de Bersillies / Rue de la Thure</desc>
<link href="https://chemins.be/solresursambre/sentier/50"/><trkseg>
<trkpt lat="50.305570" lon="4.156030"><time>2026-05-03T09:13:02Z</time></trkpt>
<trkpt lat="50.304751" lon="4.155865"><time>2026-05-03T09:23:02Z</time></trkpt>
<trkpt lat="50.304186" lon="4.156134"><time>2026-05-03T09:33:02Z</time></trkpt>
<trkpt lat="50.303251" lon="4.156531"><time>2026-05-03T09:43:02Z</time></trkpt>
<trkpt lat="50.302973" lon="4.156659"><time>2026-05-03T09:53:02Z</time></trkpt>
<trkpt lat="50.302488" lon="4.157068"><time>2026-05-03T10:03:02Z</time></trkpt>
<trkpt lat="50.301615" lon="4.156651"><time>2026-05-03T10:13:02Z</time></trkpt>
<trkpt lat="50.301139" lon="4.156597"><time>2026-05-03T10:23:02Z</time></trkpt>
<trkpt lat="50.300381" lon="4.156176"><time>2026-05-03T10:33:02Z</time></trkpt>
<trkpt lat="50.299312" lon="4.155632"><time>2026-05-03T10:43:02Z</time></trkpt>
<trkpt lat="50.297896" lon="4.154960"><time>2026-05-03T10:53:02Z</time></trkpt>
<trkpt lat="50.296801" lon="4.153368"><time>2026-05-03T11:03:02Z</time></trkpt>
</trkseg></trk>
<trk>
<name>heqss50</name>
<cmt>r</cmt>
<desc>Solre-sur-Sambre Sentier n°50 Rue de Bersillies / Rue de la Thure</desc>
<link href="https://chemins.be/solresursambre/sentier/50"/><trkseg>
<trkpt lat="50.296801" lon="4.153368"><time>2026-05-03T11:03:02Z</time></trkpt>
<trkpt lat="50.295757" lon="4.152957"><time>2026-05-03T11:13:02Z</time></trkpt>
<trkpt lat="50.293345" lon="4.153401"><time>2026-05-03T11:23:02Z</time></trkpt>
<trkpt lat="50.291610" lon="4.152939"><time>2026-05-03T11:33:02Z</time></trkpt>
<trkpt lat="50.291191" lon="4.153045"><time>2026-05-03T11:43:02Z</time></trkpt>
<trkpt lat="50.290696" lon="4.153540"><time>2026-05-03T11:53:02Z</time></trkpt>
</trkseg></trk>
<trk>
<name>heqss50</name>
<cmt>q</cmt>
<desc>Solre-sur-Sambre Sentier n°50 Rue de Bersillies / Rue de la Thure</desc>
<link href="https://chemins.be/solresursambre/sentier/50"/><trkseg>
<trkpt lat="50.290696" lon="4.153540"><time>2026-05-03T11:53:02Z</time></trkpt>
<trkpt lat="50.289656" lon="4.152988"><time>2026-05-03T12:03:02Z</time></trkpt>
<trkpt lat="50.289359" lon="4.152594"><time>2026-05-03T12:13:02Z</time></trkpt>
<trkpt lat="50.287247" lon="4.152601"><time>2026-05-03T12:23:02Z</time></trkpt>
<trkpt lat="50.286040" lon="4.153197"><time>2026-05-03T12:33:02Z</time></trkpt>
<trkpt lat="50.285419" lon="4.153503"><time>2026-05-03T12:43:02Z</time></trkpt>
<trkpt lat="50.284930" lon="4.153424"><time>2026-05-03T12:53:02Z</time></trkpt>
<trkpt lat="50.282266" lon="4.154533"><time>2026-05-03T13:03:02Z</time></trkpt>
</trkseg></trk>
<trk>
<name>heqss50</name>
<cmt>r</cmt>
<desc>Solre-sur-Sambre Sentier n°50 Rue de Bersillies / Rue de la Thure</desc>
<link href="https://chemins.be/solresursambre/sentier/50"/><trkseg>
<trkpt lat="50.282266" lon="4.154533"><time>2026-05-03T13:03:02Z</time></trkpt>
<trkpt lat="50.281493" lon="4.154461"><time>2026-05-03T13:13:02Z</time></trkpt>
<trkpt lat="50.278670" lon="4.152287"><time>2026-05-03T13:23:02Z</time></trkpt>
<trkpt lat="50.277960" lon="4.149590"><time>2026-05-03T13:33:02Z</time></trkpt>
<trkpt lat="50.277589" lon="4.149039"><time>2026-05-03T13:43:02Z</time></trkpt>
<trkpt lat="50.274451" lon="4.149009"><time>2026-05-03T13:53:02Z</time></trkpt>
</trkseg>
</trk>
</gpx>